createdAt,value
2022-08-01T00:02:33.358Z,1.73
2022-08-01T00:05:36.174Z,2.00
2022-08-01T00:08:38.658Z,1.70
2022-08-01T00:11:42.876Z,1.62
2022-08-01T00:14:49.591Z,1.92
2022-08-01T00:17:57.766Z,1.83
2022-08-01T00:21:00.253Z,1.90
2022-08-01T00:24:02.953Z,1.67
2022-08-01T00:27:05.310Z,2.20
2022-08-01T00:30:13.415Z,1.75
2022-08-01T00:33:16.807Z,2.00
2022-08-01T00:36:19.439Z,2.15
2022-08-01T00:39:21.765Z,2.10
2022-08-01T00:42:24.375Z,2.30
2022-08-01T00:45:26.835Z,2.35
2022-08-01T00:48:30.210Z,2.40
2022-08-01T00:51:32.534Z,2.12
2022-08-01T00:54:39.244Z,1.85
2022-08-01T00:58:05.218Z,2.37
2022-08-01T01:01:11.003Z,2.53
2022-08-01T01:04:15.120Z,2.20
2022-08-01T01:07:28.444Z,2.33
2022-08-01T01:10:58.860Z,2.45
2022-08-01T01:14:07.175Z,2.30
2022-08-01T01:17:15.728Z,2.30
2022-08-01T01:20:19.772Z,1.90
2022-08-01T01:26:40.277Z,2.03
2022-08-01T01:29:58.701Z,2.60
2022-08-01T01:33:06.743Z,2.40
2022-08-01T01:36:13.783Z,2.35
2022-08-01T01:39:17.745Z,2.30
2022-08-01T01:42:22.008Z,2.47
2022-08-01T01:45:26.575Z,2.08
2022-08-01T01:48:30.151Z,2.05
2022-08-01T01:51:34.035Z,2.00
2022-08-01T01:54:42.163Z,2.00
2022-08-01T01:57:46.183Z,2.40
2022-08-01T02:03:54.810Z,2.00
2022-08-01T02:06:58.640Z,2.25
2022-08-01T02:10:03.039Z,1.70
2022-08-01T02:13:07.542Z,2.25
2022-08-01T02:16:13.864Z,2.10
2022-08-01T02:19:20.684Z,2.08
2022-08-01T02:22:33.522Z,2.17
2022-08-01T02:26:09.331Z,1.90
2022-08-01T02:29:16.036Z,2.08
2022-08-01T02:32:26.671Z,1.92
2022-08-01T02:35:33.672Z,2.10
2022-08-01T02:38:44.152Z,2.25
2022-08-01T02:41:49.854Z,2.20
2022-08-01T02:44:54.977Z,2.47
2022-08-01T02:48:02.314Z,2.40
2022-08-01T02:51:07.292Z,2.55
2022-08-01T02:54:11.614Z,2.70
2022-08-01T02:57:15.839Z,2.58
2022-08-01T03:00:23.714Z,2.70
2022-08-01T03:03:28.059Z,2.40
2022-08-01T03:06:31.011Z,2.70
2022-08-01T03:09:37.024Z,3.12
2022-08-01T03:12:41.535Z,2.50
2022-08-01T03:15:45.295Z,2.62
2022-08-01T03:18:51.711Z,2.20
2022-08-01T03:21:56.960Z,2.62
2022-08-01T03:25:01.930Z,2.65
2022-08-01T03:28:06.893Z,2.30
2022-08-01T03:31:11.152Z,2.55
2022-08-01T03:34:15.757Z,2.60
2022-08-01T03:37:26.454Z,2.17
2022-08-01T03:40:38.277Z,2.50
2022-08-01T03:43:46.171Z,2.92
2022-08-01T03:46:54.799Z,2.80
2022-08-01T03:50:03.262Z,2.70
2022-08-01T03:53:10.799Z,2.72
2022-08-01T03:56:18.418Z,2.40
2022-08-01T03:59:22.407Z,2.17
2022-08-01T04:05:27.511Z,2.30
2022-08-01T04:08:40.240Z,2.80
2022-08-01T04:11:43.098Z,2.50
2022-08-01T04:14:46.123Z,2.70
2022-08-01T04:17:49.230Z,2.67
2022-08-01T04:20:54.013Z,3.00
2022-08-01T04:24:12.715Z,2.53
2022-08-01T04:27:50.529Z,2.90
2022-08-01T04:31:01.220Z,2.75
2022-08-01T04:34:06.741Z,6.78
2022-08-01T04:37:24.637Z,4.50
2022-08-01T04:40:27.655Z,3.78
2022-08-01T04:43:30.497Z,3.47
2022-08-01T04:46:40.090Z,3.40
2022-08-01T04:49:53.786Z,3.33
2022-08-01T04:52:57.005Z,3.45
2022-08-01T04:56:01.681Z,2.90
2022-08-01T04:59:22.972Z,2.83
2022-08-01T05:02:31.579Z,2.53
2022-08-01T05:05:40.186Z,2.90
2022-08-01T05:08:48.300Z,3.10
2022-08-01T05:11:59.884Z,2.97
2022-08-01T05:15:15.679Z,3.78
2022-08-01T05:18:18.156Z,4.00
2022-08-01T05:21:40.084Z,4.13
2022-08-01T05:24:43.545Z,2.28
2022-08-01T05:27:56.406Z,3.20
2022-08-01T05:31:01.189Z,3.53
2022-08-01T05:34:04.322Z,2.87
2022-08-01T05:37:09.187Z,3.10
2022-08-01T05:40:21.022Z,3.15
2022-08-01T05:43:29.382Z,9.93
2022-08-01T05:46:32.368Z,4.57
2022-08-01T05:49:34.753Z,2.83
2022-08-01T05:52:39.740Z,2.60
2022-08-01T05:55:45.786Z,2.80
2022-08-01T05:58:50.372Z,2.40
2022-08-01T06:01:53.144Z,2.97
2022-08-01T06:04:56.356Z,2.55
2022-08-01T06:07:59.145Z,2.20
2022-08-01T06:11:04.224Z,2.53
2022-08-01T06:14:06.651Z,2.65
2022-08-01T06:17:09.275Z,2.47
2022-08-01T06:20:11.837Z,2.37
2022-08-01T06:23:31.933Z,2.75
2022-08-01T06:26:36.453Z,2.22
2022-08-01T06:29:39.128Z,2.37
2022-08-01T06:33:19.917Z,2.40
2022-08-01T06:36:22.549Z,2.30
2022-08-01T06:39:26.072Z,2.20
2022-08-01T06:42:32.616Z,2.20
2022-08-01T06:45:41.713Z,2.10
2022-08-01T06:52:45.607Z,2.12
2022-08-01T06:55:49.457Z,2.20
2022-08-01T06:59:02.344Z,1.95
2022-08-01T07:02:16.891Z,1.90
2022-08-01T07:05:22.802Z,2.10
2022-08-01T07:08:29.332Z,2.05
2022-08-01T07:11:31.765Z,1.98
2022-08-01T07:14:49.039Z,2.20
2022-08-01T07:18:17.158Z,1.95
2022-08-01T07:21:40.463Z,2.22
2022-08-01T07:24:45.895Z,2.17
2022-08-01T07:27:51.464Z,2.10
2022-08-01T07:30:53.844Z,2.07
2022-08-01T07:33:59.611Z,1.80
2022-08-01T07:37:02.525Z,1.87
2022-08-01T07:40:06.426Z,1.98
2022-08-01T07:43:08.673Z,1.95
2022-08-01T07:46:11.202Z,2.42
2022-08-01T07:49:13.524Z,2.08
2022-08-01T07:52:16.306Z,2.20
2022-08-01T07:55:18.855Z,1.83
2022-08-01T07:58:21.890Z,2.08
2022-08-01T08:01:24.495Z,2.00
2022-08-01T08:04:28.280Z,2.00
2022-08-01T08:07:30.765Z,1.90
2022-08-01T08:10:34.051Z,2.08
2022-08-01T08:13:36.322Z,1.90
2022-08-01T08:16:39.424Z,1.77
2022-08-01T08:19:42.166Z,1.77
2022-08-01T08:22:44.703Z,1.50
2022-08-01T08:25:46.956Z,2.10
2022-08-01T08:28:49.470Z,2.10
2022-08-01T08:31:53.931Z,1.70
2022-08-01T08:34:56.521Z,1.80
2022-08-01T08:37:58.762Z,1.98
2022-08-01T08:41:03.153Z,2.00
2022-08-01T08:44:10.584Z,1.80
2022-08-01T08:47:19.883Z,1.90
2022-08-01T08:50:22.796Z,1.90
2022-08-01T08:53:25.949Z,1.90
2022-08-01T08:56:38.847Z,1.95
2022-08-01T08:59:45.875Z,1.48
2022-08-01T09:02:50.404Z,1.80
2022-08-01T09:05:54.150Z,1.98
2022-08-01T09:08:59.815Z,1.98
2022-08-01T09:12:02.511Z,2.15
2022-08-01T09:15:05.112Z,1.97
2022-08-01T09:18:07.873Z,1.92
2022-08-01T09:21:12.825Z,1.60
2022-08-01T09:24:16.789Z,1.90
2022-08-01T09:27:22.712Z,1.80
2022-08-01T09:30:26.074Z,1.90
2022-08-01T09:33:54.382Z,2.00
2022-08-01T09:37:02.470Z,1.90
2022-08-01T09:40:05.228Z,1.83
2022-08-01T09:43:14.943Z,1.87
2022-08-01T09:46:17.861Z,1.92
2022-08-01T09:49:50.548Z,1.87
2022-08-01T09:52:56.987Z,1.85
2022-08-01T09:56:20.956Z,2.00
2022-08-01T09:59:56.693Z,2.20
2022-08-01T10:02:58.161Z,2.70
2022-08-01T10:06:25.015Z,2.50
2022-08-01T10:09:40.437Z,2.25
2022-08-01T10:12:45.375Z,2.10
2022-08-01T10:15:48.574Z,2.30
2022-08-01T10:21:57.980Z,1.95
2022-08-01T10:25:05.683Z,2.70
2022-08-01T10:28:18.204Z,2.15
2022-08-01T10:31:30.560Z,2.17
2022-08-01T10:34:35.714Z,2.30
2022-08-01T10:37:51.945Z,2.15
2022-08-01T10:40:58.064Z,2.25
2022-08-01T10:44:02.684Z,2.20
2022-08-01T10:47:12.240Z,2.47
2022-08-01T10:50:21.877Z,2.35
2022-08-01T10:53:31.876Z,2.70
2022-08-01T10:56:49.626Z,2.20
2022-08-01T11:00:00.867Z,2.30
2022-08-01T11:03:05.087Z,2.40
2022-08-01T11:06:08.395Z,2.12
2022-08-01T11:09:16.381Z,2.20
2022-08-01T11:12:24.969Z,2.58
2022-08-01T11:15:31.912Z,2.12
2022-08-01T11:18:37.848Z,2.30
2022-08-01T11:21:58.063Z,2.25
2022-08-01T11:25:02.328Z,2.37
2022-08-01T11:28:28.594Z,2.28
2022-08-01T11:31:37.591Z,2.47
2022-08-01T11:35:07.290Z,3.08
2022-08-01T11:38:30.876Z,2.47
2022-08-01T11:41:39.502Z,2.60
2022-08-01T11:44:52.157Z,2.78
2022-08-01T11:50:58.472Z,2.90
2022-08-01T11:54:05.001Z,2.40
2022-08-01T12:00:19.949Z,2.45
2022-08-01T12:03:33.633Z,2.50
2022-08-01T12:06:36.677Z,2.25
2022-08-01T12:12:45.733Z,3.00
2022-08-01T12:15:51.428Z,2.40
2022-08-01T12:18:57.285Z,2.40
2022-08-01T12:25:18.829Z,2.12
2022-08-01T12:28:21.879Z,2.20
2022-08-01T12:31:32.724Z,2.50
2022-08-01T12:34:35.519Z,2.37
2022-08-01T12:37:58.963Z,2.12
2022-08-01T12:41:01.616Z,2.20
2022-08-01T12:44:04.141Z,2.62
2022-08-01T12:47:07.871Z,2.35
2022-08-01T12:50:19.553Z,4.90
2022-08-01T12:53:22.846Z,4.32
2022-08-01T12:56:35.176Z,2.70
2022-08-01T12:59:38.261Z,2.12
2022-08-01T13:02:41.496Z,2.45
2022-08-01T13:05:52.651Z,2.65
2022-08-01T13:08:55.065Z,2.30
2022-08-01T13:15:25.067Z,2.08
2022-08-01T13:18:33.375Z,2.30
2022-08-01T13:21:54.548Z,2.25
2022-08-01T13:25:14.582Z,1.80
2022-08-01T13:28:25.135Z,1.98
2022-08-01T13:31:34.652Z,1.85
2022-08-01T13:34:36.939Z,1.70
2022-08-01T13:37:41.837Z,1.87
2022-08-01T13:40:44.129Z,3.65
2022-08-01T13:43:58.941Z,2.47
2022-08-01T13:47:15.429Z,2.00
2022-08-01T13:50:19.112Z,2.20
2022-08-01T13:53:21.469Z,2.03
2022-08-01T13:56:24.487Z,1.90
2022-08-01T13:59:26.867Z,1.92
2022-08-01T14:02:29.517Z,2.05
2022-08-01T14:05:32.135Z,3.60
2022-08-01T14:08:34.525Z,2.60
2022-08-01T14:14:39.863Z,2.40
2022-08-01T14:17:47.827Z,2.10
2022-08-01T14:20:50.601Z,1.92
2022-08-01T14:23:56.328Z,2.03
2022-08-01T14:26:58.639Z,2.12
2022-08-01T14:30:05.422Z,2.00
2022-08-01T14:33:11.171Z,2.20
2022-08-01T14:36:29.410Z,2.30
2022-08-01T14:39:33.194Z,2.20
2022-08-01T14:42:36.740Z,1.95
2022-08-01T14:45:38.988Z,2.37
2022-08-01T14:48:41.627Z,2.25
2022-08-01T14:51:43.837Z,1.90
2022-08-01T14:54:46.669Z,2.00
2022-08-01T14:57:48.924Z,2.00
2022-08-01T15:00:58.507Z,2.47
2022-08-01T15:04:01.705Z,2.78
2022-08-01T15:07:07.139Z,2.25
2022-08-01T15:10:10.433Z,2.25
2022-08-01T15:13:13.054Z,2.10
2022-08-01T15:16:15.322Z,2.33
2022-08-01T15:19:17.925Z,2.22
2022-08-01T15:22:22.451Z,2.00
2022-08-01T15:25:25.115Z,2.30
2022-08-01T15:28:27.656Z,3.10
2022-08-01T15:31:30.260Z,2.67
2022-08-01T15:34:33.384Z,2.70
2022-08-01T15:37:40.845Z,2.40
2022-08-01T15:40:44.993Z,2.10
2022-08-01T15:43:47.716Z,1.83
2022-08-01T15:46:58.529Z,2.10
2022-08-01T15:50:02.864Z,2.00
2022-08-01T15:53:05.824Z,2.35
2022-08-01T15:56:08.580Z,2.00
2022-08-01T15:59:11.153Z,2.60
2022-08-01T16:02:14.602Z,2.42
2022-08-01T16:05:20.277Z,2.33
2022-08-01T16:08:22.872Z,2.42
2022-08-01T16:11:27.665Z,2.33
2022-08-01T16:14:29.944Z,1.98
2022-08-01T16:17:32.631Z,2.05
2022-08-01T16:20:35.267Z,2.23
2022-08-01T16:23:42.992Z,2.55
2022-08-01T16:26:45.233Z,3.12
2022-08-01T16:29:47.717Z,2.70
2022-08-01T16:32:54.685Z,2.30
2022-08-01T16:36:01.971Z,2.25
2022-08-01T16:39:05.546Z,2.30
2022-08-01T16:42:08.431Z,2.15
2022-08-01T16:45:13.734Z,2.28
2022-08-01T16:48:18.542Z,2.25
2022-08-01T16:51:21.020Z,2.40
2022-08-01T16:54:24.891Z,2.05
2022-08-01T16:57:32.951Z,2.37
2022-08-01T17:00:35.773Z,2.35
2022-08-01T17:03:47.123Z,2.20
2022-08-01T17:06:56.874Z,2.70
2022-08-01T17:10:01.011Z,2.37
2022-08-01T17:13:04.199Z,2.30
2022-08-01T17:16:08.207Z,2.03
2022-08-01T17:19:10.781Z,2.10
2022-08-01T17:22:13.580Z,2.37
2022-08-01T17:25:18.020Z,2.20
2022-08-01T17:28:23.061Z,2.37
2022-08-01T17:31:27.257Z,1.98
2022-08-01T17:34:29.573Z,2.15
2022-08-01T17:37:32.112Z,3.20
2022-08-01T17:40:41.575Z,2.45
2022-08-01T17:43:44.293Z,2.55
2022-08-01T17:46:46.879Z,2.67
2022-08-01T17:49:56.730Z,2.30
2022-08-01T17:52:59.536Z,2.40
2022-08-01T17:56:05.569Z,2.45
2022-08-01T17:59:07.876Z,2.30
2022-08-01T18:02:10.764Z,2.35
2022-08-01T18:05:15.511Z,2.42
2022-08-01T18:08:18.573Z,2.60
2022-08-01T18:11:21.739Z,2.67
2022-08-01T18:14:32.595Z,2.78
2022-08-01T18:17:43.366Z,5.70
2022-08-01T18:20:46.885Z,4.43
2022-08-01T18:23:51.598Z,3.10
2022-08-01T18:26:54.892Z,2.90
2022-08-01T18:29:57.901Z,2.87
2022-08-01T18:33:00.504Z,2.83
2022-08-01T18:36:04.423Z,3.20
2022-08-01T18:39:10.018Z,2.83
2022-08-01T18:42:13.277Z,2.83
2022-08-01T18:45:18.275Z,3.12
2022-08-01T18:48:20.892Z,3.33
2022-08-01T18:51:24.740Z,3.10
2022-08-01T18:54:29.732Z,3.20
2022-08-01T18:57:32.162Z,3.45
2022-08-01T19:00:34.912Z,3.58
2022-08-01T19:03:42.496Z,3.60
2022-08-01T19:06:47.691Z,3.28
2022-08-01T19:09:52.404Z,3.12
2022-08-01T19:13:00.371Z,3.90
2022-08-01T19:16:04.326Z,3.80
2022-08-01T19:19:09.747Z,3.83
2022-08-01T19:22:12.218Z,4.53
2022-08-01T19:25:15.772Z,3.70
2022-08-01T19:28:21.687Z,4.12
2022-08-01T19:32:17.969Z,4.00
2022-08-01T19:35:29.515Z,4.15
2022-08-01T19:38:36.563Z,3.80
2022-08-01T19:41:55.976Z,3.33
2022-08-01T19:45:37.752Z,4.45
2022-08-01T19:48:42.349Z,4.57
2022-08-01T19:53:17.127Z,4.05
2022-08-01T21:06:14.909Z,2.70
2022-08-01T21:13:21.294Z,2.95
2022-08-01T21:16:39.077Z,3.55
2022-08-01T21:19:45.959Z,2.85
2022-08-01T21:24:17.058Z,3.17
2022-08-01T21:26:56.279Z,3.20
2022-08-01T21:30:12.077Z,2.90
2022-08-01T21:40:31.266Z,3.37
2022-08-01T21:43:47.728Z,3.00
2022-08-01T21:46:54.858Z,2.90
2022-08-01T21:50:07.713Z,2.90
2022-08-01T21:53:47.443Z,3.22
2022-08-01T21:57:09.471Z,2.95
2022-08-01T22:00:55.505Z,2.85
2022-08-01T22:04:32.970Z,3.17
2022-08-01T22:08:11.394Z,3.10
2022-08-01T22:11:32.931Z,3.42
2022-08-01T22:14:44.833Z,2.92
2022-08-01T22:18:12.809Z,3.08
2022-08-01T22:21:23.923Z,2.95
2022-08-01T22:24:59.167Z,3.17
2022-08-01T22:28:10.525Z,2.65
2022-08-01T22:31:39.922Z,3.20
2022-08-01T22:34:53.108Z,2.80
2022-08-01T22:38:09.812Z,2.90
2022-08-01T22:41:19.037Z,2.78
2022-08-01T22:44:40.864Z,3.00
2022-08-01T22:48:11.137Z,2.95
2022-08-01T22:51:31.652Z,2.95
2022-08-01T22:54:50.737Z,2.83
2022-08-01T22:58:03.916Z,2.90
2022-08-01T23:01:12.817Z,2.75
2022-08-01T23:04:58.631Z,2.72
2022-08-01T23:08:04.371Z,2.58
2022-08-01T23:11:09.429Z,2.72
2022-08-01T23:14:22.404Z,3.42
2022-08-01T23:17:29.273Z,3.15
2022-08-01T23:20:37.289Z,3.17
2022-08-01T23:23:40.122Z,2.97
2022-08-01T23:26:42.895Z,2.53
2022-08-01T23:29:49.531Z,2.80
2022-08-01T23:32:51.828Z,2.65
2022-08-01T23:35:54.491Z,3.00
2022-08-01T23:38:56.822Z,3.10
2022-08-01T23:42:05.408Z,2.83
2022-08-01T23:45:10.005Z,3.10
2022-08-01T23:48:14.972Z,2.83
2022-08-01T23:51:24.313Z,3.00
2022-08-01T23:54:27.658Z,2.92
2022-08-01T23:57:32.650Z,2.80
